Time;durP1;ratioP1;P1;durP2;ratioP2;P2;SDS_P1;SDS_P2;PMS_P1;PMS_P2;Temp;Humidity;BMP_temperature;BMP_pressure;BME280_temperature;BME280_humidity;BME280_pressure;Samples;Min_cycle;Max_cycle;Signal;HPM_P1;HPM_P2
2023/04/12 00:01:10;;;;;;;4.10;1.90;;;;;;;11.00;94.33;99808.88;5049371;28;20270;-73
2023/04/12 00:03:36;;;;;;;2.17;1.80;;;;;;;10.97;95.38;99809.78;5029923;28;21163;-72
2023/04/12 00:06:06;;;;;;;2.70;1.77;;;;;;;10.90;96.26;99798.69;5047983;28;20235;-73
2023/04/12 00:08:34;;;;;;;3.63;1.80;;;;;;;10.81;97.16;99798.88;5035538;28;20747;-71
2023/04/12 00:11:01;;;;;;;2.43;1.53;;;;;;;10.79;98.34;99791.13;5035894;28;21040;-72
2023/04/12 00:13:27;;;;;;;3.20;1.70;;;;;;;10.74;99.05;99781.75;5040993;28;20192;-71
2023/04/12 00:15:52;;;;;;;4.23;2.13;;;;;;;10.70;100.00;99780.94;5027285;28;20219;-71
2023/04/12 00:18:18;;;;;;;2.47;1.80;;;;;;;10.65;100.00;99778.44;5033086;28;20212;-71
2023/04/12 00:20:43;;;;;;;3.50;1.87;;;;;;;10.61;100.00;99776.78;5040985;28;20306;-71
2023/04/12 00:23:11;;;;;;;2.50;1.83;;;;;;;10.57;100.00;99764.78;5033444;28;20305;-71
2023/04/12 00:25:38;;;;;;;2.77;1.87;;;;;;;10.52;100.00;99762.28;5038703;28;20863;-71
2023/04/12 00:28:03;;;;;;;3.10;1.93;;;;;;;10.47;100.00;99753.72;5047948;28;20281;-71
2023/04/12 00:30:29;;;;;;;3.10;1.90;;;;;;;10.44;100.00;99748.59;5034916;28;20751;-71
2023/04/12 00:32:54;;;;;;;3.13;1.80;;;;;;;10.42;100.00;99742.63;5034632;28;20688;-70
2023/04/12 00:35:19;;;;;;;2.77;1.50;;;;;;;10.43;100.00;99739.16;5035165;28;20256;-73
2023/04/12 00:37:45;;;;;;;3.20;1.90;;;;;;;10.41;100.00;99733.16;5038244;28;20188;-71
2023/04/12 00:40:11;;;;;;;2.13;1.50;;;;;;;10.39;100.00;99728.88;5034633;28;20283;-71
2023/04/12 00:42:36;;;;;;;1.47;1.33;;;;;;;10.39;100.00;99724.56;5035929;28;20190;-71
2023/04/12 00:45:02;;;;;;;3.03;1.33;;;;;;;10.40;100.00;99720.22;5034195;28;20226;-72
2023/04/12 00:47:28;;;;;;;2.00;1.70;;;;;;;10.40;100.00;99715.91;5053684;28;20210;-71
2023/04/12 00:49:54;;;;;;;3.50;1.63;;;;;;;10.42;100.00;99713.28;5028997;28;20721;-71
2023/04/12 00:52:21;;;;;;;2.93;1.77;;;;;;;10.43;100.00;99708.13;5036222;28;20202;-72
2023/04/12 00:54:46;;;;;;;2.00;1.40;;;;;;;10.41;100.00;99704.69;5036506;28;20285;-71
2023/04/12 00:57:12;;;;;;;1.83;1.20;;;;;;;10.39;100.00;99701.28;5032578;28;20189;-72
2023/04/12 00:59:37;;;;;;;2.33;1.47;;;;;;;10.33;100.00;99702.22;5044021;28;20186;-71
2023/04/12 01:02:02;;;;;;;2.20;1.57;;;;;;;10.31;100.00;99697.94;5029145;28;20214;-71
2023/04/12 01:04:28;;;;;;;2.23;1.47;;;;;;;10.30;100.00;99685.88;5032799;28;20286;-70
2023/04/12 01:07:33;;;;;;;1.80;1.20;;;;;;;10.26;100.00;99686.81;5029789;28;20261;-71
2023/04/12 01:10:12;;;;;;;1.30;1.20;;;;;;;10.24;100.00;99681.66;5029064;28;20185;-71
2023/04/12 01:12:45;;;;;;;2.00;1.40;;;;;;;10.25;100.00;99682.53;5033749;28;20177;-71
2023/04/12 01:15:12;;;;;;;1.70;1.33;;;;;;;10.25;100.00;99673.03;5041346;28;20295;-71
2023/04/12 01:17:46;;;;;;;3.63;1.47;;;;;;;10.22;100.00;99668.78;5037371;28;20244;-71
2023/04/12 01:20:18;;;;;;;2.07;1.50;;;;;;;10.18;100.00;99663.69;5032045;28;20183;-71
2023/04/12 01:23:05;;;;;;;1.53;1.20;;;;;;;10.13;100.00;99660.31;5048943;28;20195;-70
2023/04/12 01:25:46;;;;;;;2.93;1.30;;;;;;;10.08;100.00;99647.47;5042927;28;20595;-71
2023/04/12 01:28:17;;;;;;;1.40;1.10;;;;;;;10.06;100.00;99644.91;5044338;28;20746;-71
2023/04/12 01:30:45;;;;;;;1.47;1.10;;;;;;;10.05;100.00;99642.34;5040700;28;20182;-71
2023/04/12 01:33:11;;;;;;;2.00;1.17;;;;;;;10.04;100.00;99643.22;5035121;28;20199;-72
2023/04/12 01:35:37;;;;;;;2.40;1.20;;;;;;;10.02;100.00;99632.06;5031539;28;20241;-72
2023/04/12 01:38:03;;;;;;;1.87;1.30;;;;;;;10.00;100.00;99629.50;5028643;28;20190;-73
2023/04/12 01:40:30;;;;;;;1.83;1.00;;;;;;;9.99;100.00;99620.06;5040067;28;20321;-72
2023/04/12 01:43:12;;;;;;;1.47;1.13;;;;;;;9.97;100.00;99620.97;5040894;28;20187;-71
2023/04/12 01:45:38;;;;;;;1.37;1.13;;;;;;;9.96;100.00;99625.25;5039710;28;20209;-71
2023/04/12 01:48:08;;;;;;;1.03;0.93;;;;;;;9.97;100.00;99608.88;5032904;28;20179;-71
2023/04/12 01:51:04;;;;;;;2.60;1.17;;;;;;;9.97;100.00;99603.72;5033483;28;20183;-71
2023/04/12 01:53:46;;;;;;;1.80;1.10;;;;;;;9.97;100.00;99601.13;5037874;28;20194;-71
2023/04/12 01:56:15;;;;;;;1.40;1.20;;;;;;;9.99;100.00;99599.38;5038130;28;20177;-70
2023/04/12 01:58:42;;;;;;;0.97;0.90;;;;;;;10.01;100.00;99591.56;5034753;28;20257;-71
2023/04/12 02:01:10;;;;;;;1.20;1.10;;;;;;;10.02;100.00;99585.53;5026148;28;20203;-70
2023/04/12 02:03:36;;;;;;;1.23;0.90;;;;;;;10.01;100.00;99587.28;5032701;28;20209;-72
2023/04/12 02:06:03;;;;;;;1.67;1.00;;;;;;;10.02;100.00;99581.22;5032518;28;20306;-71
2023/04/12 02:08:28;;;;;;;2.03;1.30;;;;;;;10.03;100.00;99569.13;5052476;28;20187;-72
2023/04/12 02:10:54;;;;;;;1.53;1.03;;;;;;;10.06;100.00;99574.25;5040502;28;20265;-72
2023/04/12 02:13:19;;;;;;;1.77;1.00;;;;;;;10.08;100.00;99564.75;5038784;28;20219;-71
2023/04/12 02:15:45;;;;;;;1.20;1.10;;;;;;;10.11;100.00;99559.53;5028735;28;20199;-70
2023/04/12 02:18:12;;;;;;;1.63;1.10;;;;;;;10.12;100.00;99555.19;5031579;28;20216;-72
2023/04/12 02:20:38;;;;;;;1.50;1.10;;;;;;;10.13;100.00;99557.75;5043751;28;20186;-70
2023/04/12 02:23:03;;;;;;;1.97;1.10;;;;;;;10.15;100.00;99549.97;5029301;28;20249;-72
2023/04/12 02:25:28;;;;;;;1.33;0.90;;;;;;;10.15;100.00;99542.22;5039744;28;20211;-72
2023/04/12 02:27:54;;;;;;;1.87;1.30;;;;;;;10.18;100.00;99537.00;5034252;28;20187;-70
2023/04/12 02:30:19;;;;;;;2.67;1.60;;;;;;;10.17;100.00;99537.88;5027288;28;20207;-70
2023/04/12 02:32:45;;;;;;;2.80;1.60;;;;;;;10.17;100.00;99525.78;5045523;28;20218;-71
2023/04/12 02:35:11;;;;;;;1.37;1.27;;;;;;;10.20;100.00;99520.56;5026797;28;20703;-70
2023/04/12 02:37:37;;;;;;;1.70;1.60;;;;;;;10.21;100.00;99517.09;5039943;28;20227;-72
2023/04/12 02:40:05;;;;;;;2.10;1.87;;;;;;;10.21;100.00;99518.81;5035410;28;20194;-72
2023/04/12 02:42:31;;;;;;;2.47;1.60;;;;;;;10.20;100.00;99511.94;5033475;28;20694;-71
2023/04/12 02:44:56;;;;;;;2.27;1.40;;;;;;;10.22;100.00;99503.28;5032099;28;20313;-72
2023/04/12 02:47:27;;;;;;;1.73;1.30;;;;;;;10.22;100.00;99497.22;5036336;28;20271;-71
2023/04/12 02:49:52;;;;;;;1.67;1.57;;;;;;;10.21;100.00;99485.19;5038220;28;20666;-71
2023/04/12 02:52:17;;;;;;;2.20;1.20;;;;;;;10.20;100.00;99493.84;5033419;28;20187;-71
2023/04/12 02:54:43;;;;;;;2.00;1.47;;;;;;;10.17;100.00;99470.63;5029363;28;22173;-71
2023/04/12 02:57:08;;;;;;;1.50;1.40;;;;;;;10.16;100.00;99464.59;5040885;28;20556;-71
2023/04/12 02:59:33;;;;;;;1.70;1.23;;;;;;;10.15;100.00;99455.13;5038860;28;20286;-72
2023/04/12 03:01:58;;;;;;;1.83;1.43;;;;;;;10.13;100.00;99456.06;5028899;28;20194;-70
2023/04/12 03:04:28;;;;;;;1.27;1.17;;;;;;;10.10;100.00;99446.66;5032590;28;20200;-71
2023/04/12 03:06:54;;;;;;;1.50;1.03;;;;;;;10.06;100.00;99440.66;5031973;28;20576;-71
2023/04/12 03:09:19;;;;;;;1.73;1.37;;;;;;;10.06;100.00;99440.66;5036212;28;20198;-70
2023/04/12 03:11:45;;;;;;;1.20;1.10;;;;;;;10.08;100.00;99425.16;5031496;28;20190;-70
2023/04/12 03:14:11;;;;;;;2.57;1.50;;;;;;;10.07;100.00;99423.44;5045999;28;20320;-70
2023/04/12 03:16:36;;;;;;;2.03;1.63;;;;;;;10.07;100.00;99426.84;5036770;28;20666;-72
2023/04/12 03:19:02;;;;;;;1.87;1.67;;;;;;;10.07;100.00;99416.53;5033859;28;20238;-71
2023/04/12 03:21:27;;;;;;;1.83;1.40;;;;;;;10.09;100.00;99407.88;5030981;28;20198;-70
2023/04/12 03:23:53;;;;;;;1.90;1.50;;;;;;;10.10;100.00;99409.59;5032313;28;20195;-71
2023/04/12 03:26:19;;;;;;;2.73;1.50;;;;;;;10.09;100.00;99393.25;5029114;28;20211;-70
2023/04/12 03:28:45;;;;;;;1.80;1.33;;;;;;;10.10;100.00;99388.91;5037334;28;20655;-72
2023/04/12 03:31:11;;;;;;;1.27;1.10;;;;;;;10.08;100.00;99383.78;5035823;28;20291;-72
2023/04/12 03:33:37;;;;;;;1.50;1.30;;;;;;;10.05;100.00;99373.50;5038449;28;20179;-71
2023/04/12 03:36:03;;;;;;;2.70;1.20;;;;;;;10.01;100.00;99364.09;5032620;28;20250;-72
2023/04/12 03:38:29;;;;;;;1.73;1.33;;;;;;;9.98;100.00;99357.28;5037303;28;20215;-72
2023/04/12 03:40:54;;;;;;;1.60;1.20;;;;;;;9.94;100.00;99353.03;5041886;28;20226;-71
2023/04/12 03:43:19;;;;;;;1.97;1.03;;;;;;;9.91;100.00;99358.28;5042591;28;21059;-70
2023/04/12 03:45:45;;;;;;;1.70;1.23;;;;;;;9.87;100.00;99349.75;5037681;28;20708;-71
2023/04/12 03:48:10;;;;;;;1.50;1.10;;;;;;;9.85;100.00;99348.91;5035758;28;20616;-72
2023/04/12 03:50:43;;;;;;;1.40;1.00;;;;;;;9.85;100.00;99338.59;5029926;28;20675;-71
2023/04/12 03:53:09;;;;;;;2.00;1.20;;;;;;;9.87;100.00;99339.41;5041683;28;20202;-71
2023/04/12 03:55:36;;;;;;;1.37;1.13;;;;;;;9.87;100.00;99328.22;5035501;28;20588;-70
2023/04/12 03:58:02;;;;;;;1.27;1.00;;;;;;;9.90;100.00;99330.75;5037060;28;20291;-70
2023/04/12 04:00:28;;;;;;;2.57;1.30;;;;;;;9.92;100.00;99328.97;5039654;28;20270;-72
2023/04/12 04:02:53;;;;;;;2.63;1.00;;;;;;;9.95;100.00;99315.97;5041790;28;20191;-71
2023/04/12 04:05:19;;;;;;;1.67;1.00;;;;;;;9.95;100.00;99315.97;5066485;28;20203;-72
2023/04/12 04:07:44;;;;;;;0.93;0.83;;;;;;;9.96;100.00;99315.09;5049531;28;20671;-71
2023/04/12 04:10:10;;;;;;;1.63;1.20;;;;;;;9.96;100.00;99315.09;5037085;28;20202;-72
2023/04/12 04:12:35;;;;;;;2.00;1.20;;;;;;;9.98;100.00;99305.56;5039516;28;20193;-71
2023/04/12 04:15:00;;;;;;;1.90;1.20;;;;;;;9.98;100.00;99305.56;5029294;28;20221;-71
2023/04/12 04:17:26;;;;;;;1.20;0.90;;;;;;;10.00;100.00;99302.94;5047152;28;20225;-71
2023/04/12 04:19:51;;;;;;;1.77;1.00;;;;;;;10.02;100.00;99290.84;5059917;28;20277;-70
2023/04/12 04:22:20;;;;;;;1.00;0.90;;;;;;;10.06;100.00;99295.06;5036448;28;20195;-71
2023/04/12 04:24:47;;;;;;;1.27;0.80;;;;;;;10.07;100.00;99286.44;5041576;28;20272;-72
2023/04/12 04:27:14;;;;;;;1.60;1.10;;;;;;;10.09;100.00;99284.66;5031203;28;20203;-71
2023/04/12 04:29:44;;;;;;;1.20;1.10;;;;;;;10.09;100.00;99276.03;5035510;28;20199;-72
2023/04/12 04:32:09;;;;;;;2.50;1.50;;;;;;;10.10;100.00;99275.16;5037421;28;20328;-71
2023/04/12 04:34:35;;;;;;;1.87;1.40;;;;;;;10.09;100.00;99276.91;5036168;28;20308;-71
2023/04/12 04:37:01;;;;;;;2.10;1.20;;;;;;;10.08;100.00;99270.03;5038834;28;20183;-71
2023/04/12 04:39:27;;;;;;;1.73;1.07;;;;;;;10.06;100.00;99267.47;5051295;28;20280;-69
2023/04/12 04:41:53;;;;;;;1.77;1.10;;;;;;;10.06;100.00;99274.38;5047500;28;20187;-71
2023/04/12 04:44:19;;;;;;;1.43;1.30;;;;;;;10.05;100.00;99272.69;5041514;28;20295;-71
2023/04/12 04:46:44;;;;;;;1.70;1.20;;;;;;;10.03;100.00;99274.44;5035268;28;20293;-71
2023/04/12 04:49:10;;;;;;;1.27;1.17;;;;;;;10.03;100.00;99274.44;5036358;28;20208;-71
2023/04/12 04:51:35;;;;;;;2.13;1.47;;;;;;;10.00;100.00;99271.94;5036647;28;21048;-72
2023/04/12 04:54:01;;;;;;;2.00;1.30;;;;;;;9.99;100.00;99267.63;5037232;28;20260;-71
2023/04/12 04:56:26;;;;;;;1.40;1.20;;;;;;;9.96;100.00;99260.81;5037202;28;20206;-70
2023/04/12 04:58:52;;;;;;;2.20;1.20;;;;;;;9.94;100.00;99257.41;5042779;28;20544;-70
2023/04/12 05:01:17;;;;;;;1.77;1.10;;;;;;;9.93;100.00;99255.72;5040317;28;20223;-70
2023/04/12 05:03:48;;;;;;;1.23;0.97;;;;;;;9.93;100.00;99260.88;5036127;28;20194;-72
2023/04/12 05:06:13;;;;;;;1.57;1.20;;;;;;;9.92;100.00;99259.19;5035996;28;20242;-74
2023/04/12 05:08:39;;;;;;;2.63;1.20;;;;;;;9.91;100.00;99252.31;5038912;28;20203;-74
2023/04/12 05:11:05;;;;;;;1.77;0.90;;;;;;;9.93;100.00;99250.53;5036149;28;20405;-72
2023/04/12 05:13:30;;;;;;;1.47;1.10;;;;;;;9.95;100.00;99248.78;5026145;28;20188;-72
2023/04/12 05:15:55;;;;;;;1.87;1.20;;;;;;;9.95;100.00;99246.19;5030125;28;20199;-73
2023/04/12 05:18:21;;;;;;;3.57;1.30;;;;;;;9.97;100.00;99230.66;5036925;28;20236;-73
2023/04/12 05:20:47;;;;;;;2.03;1.30;;;;;;;9.97;100.00;99220.34;5035936;28;20202;-71
2023/04/12 05:23:13;;;;;;;2.17;1.90;;;;;;;10.00;100.00;99209.91;5030285;28;20585;-71
2023/04/12 05:25:46;;;;;;;1.83;1.50;;;;;;;10.01;100.00;99207.28;5038443;28;20198;-72
2023/04/12 05:28:14;;;;;;;1.53;1.43;;;;;;;10.04;100.00;99209.81;5036052;28;20242;-72
2023/04/12 05:30:39;;;;;;;1.77;1.40;;;;;;;10.07;100.00;99203.69;5028734;28;20183;-71
2023/04/12 05:33:05;;;;;;;1.40;1.13;;;;;;;10.11;100.00;99194.13;5039686;28;20711;-71
2023/04/12 05:35:30;;;;;;;1.30;1.20;;;;;;;10.15;100.00;99185.41;5028163;28;20210;-72
2023/04/12 05:37:56;;;;;;;2.23;1.20;;;;;;;10.16;100.00;99166.44;5027423;28;20207;-72
2023/04/12 05:40:21;;;;;;;1.90;1.40;;;;;;;10.21;100.00;99161.97;5032438;28;20287;-72
2023/04/12 05:42:46;;;;;;;1.27;1.10;;;;;;;10.24;100.00;99161.06;5045758;28;20225;-71
2023/04/12 05:45:11;;;;;;;2.43;1.23;;;;;;;10.31;100.00;99165.19;5037104;28;20755;-71
2023/04/12 05:47:37;;;;;;;1.60;1.00;;;;;;;10.38;100.00;99164.19;5040319;28;20190;-72
2023/04/12 05:50:02;;;;;;;2.33;1.33;;;;;;;10.42;100.00;99160.63;5036272;28;20183;-72
2023/04/12 05:52:28;;;;;;;1.60;1.20;;;;;;;10.45;100.00;99159.69;5040847;28;20236;-71
2023/04/12 05:54:53;;;;;;;1.20;1.10;;;;;;;10.49;100.00;99156.97;5030175;28;20218;-71
2023/04/12 05:57:18;;;;;;;2.70;1.40;;;;;;;10.52;100.00;99154.31;5026414;28;20195;-71
2023/04/12 05:59:43;;;;;;;1.80;1.10;;;;;;;10.56;100.00;99143.88;5036380;28;20240;-72
2023/04/12 06:02:09;;;;;;;1.60;1.10;;;;;;;10.58;100.00;99137.78;5032580;28;20504;-71
2023/04/12 06:04:37;;;;;;;1.73;1.10;;;;;;;10.64;100.00;99137.63;5041650;28;20270;-72
2023/04/12 06:07:04;;;;;;;1.30;1.03;;;;;;;10.71;100.00;99143.47;5038201;28;20208;-71
2023/04/12 06:09:30;;;;;;;2.33;1.30;;;;;;;10.74;100.00;99137.34;5033812;28;20204;-72
2023/04/12 06:11:56;;;;;;;1.73;1.10;;;;;;;10.78;100.00;99141.56;5031593;28;20183;-73
2023/04/12 06:14:21;;;;;;;2.93;1.10;;;;;;;10.80;100.00;99130.25;5034296;28;20241;-72
2023/04/12 06:16:46;;;;;;;3.03;1.70;;;;;;;10.84;100.00;99123.25;5029131;28;20186;-71
2023/04/12 06:19:12;;;;;;;1.80;1.30;;;;;;;10.85;100.00;99124.09;5033735;28;20217;-72
2023/04/12 06:21:37;;;;;;;1.70;1.10;;;;;;;10.90;100.00;99110.13;5028253;28;21875;-72
2023/04/12 06:24:02;;;;;;;1.90;1.23;;;;;;;10.91;100.00;99117.00;5032092;28;20281;-72
2023/04/12 06:26:29;;;;;;;2.57;1.20;;;;;;;10.98;100.00;99104.72;5036996;28;20245;-72
2023/04/12 06:28:54;;;;;;;2.80;1.20;;;;;;;11.06;100.00;99101.91;5033646;28;20314;-72
2023/04/12 06:31:20;;;;;;;1.20;1.10;;;;;;;11.14;100.00;99089.56;5032125;28;20294;-72
2023/04/12 06:33:46;;;;;;;3.17;1.37;;;;;;;11.22;100.00;99085.03;5036929;28;20188;-72
2023/04/12 06:36:13;;;;;;;1.53;1.30;;;;;;;11.26;100.00;99078.84;5034096;28;20265;-73
2023/04/12 06:38:38;;;;;;;2.80;1.40;;;;;;;11.32;100.00;99069.19;5033758;28;20330;-73
2023/04/12 06:41:05;;;;;;;2.63;1.40;;;;;;;11.35;100.00;99066.50;5029071;28;20716;-74
2023/04/12 06:43:30;;;;;;;1.90;1.20;;;;;;;11.41;100.00;99056.78;5034261;28;20219;-72
2023/04/12 06:45:56;;;;;;;1.27;1.17;;;;;;;11.48;100.00;99048.84;5031230;28;21145;-72
2023/04/12 06:48:21;;;;;;;1.80;1.30;;;;;;;11.56;100.00;99049.41;5039034;28;20253;-71
2023/04/12 06:50:46;;;;;;;2.47;1.47;;;;;;;11.60;100.00;99045.81;5034401;28;20196;-71
2023/04/12 06:53:12;;;;;;;1.97;1.57;;;;;;;11.61;100.00;99039.75;5041021;28;20185;-72
2023/04/12 06:55:38;;;;;;;1.87;1.50;;;;;;;11.61;100.00;99034.56;5032130;28;22020;-72
2023/04/12 06:58:03;;;;;;;1.67;1.33;;;;;;;11.63;100.00;99026.72;5033278;28;20226;-72
2023/04/12 07:00:28;;;;;;;1.40;1.30;;;;;;;11.66;100.00;99024.88;5029282;28;20273;-73
2023/04/12 07:02:54;;;;;;;1.53;1.17;;;;;;;11.70;100.00;99021.28;5034945;28;20200;-71
2023/04/12 07:05:19;;;;;;;2.20;1.37;;;;;;;11.73;100.00;99017.72;5030361;28;20214;-71
2023/04/12 07:07:45;;;;;;;1.50;1.40;;;;;;;11.79;100.00;99021.88;5030191;28;20204;-72
2023/04/12 07:10:10;;;;;;;2.47;1.53;;;;;;;11.88;100.00;99021.56;5038965;28;20225;-72
2023/04/12 07:12:35;;;;;;;7.20;4.77;;;;;;;11.99;100.00;99011.69;5032081;28;20262;-73
2023/04/12 07:15:01;;;;;;;12.40;8.37;;;;;;;12.07;100.00;99002.81;5033715;28;20215;-72
2023/04/12 07:17:26;;;;;;;26.70;19.10;;;;;;;12.12;100.00;98990.50;5036411;28;20557;-71
2023/04/12 07:19:55;;;;;;;25.07;19.37;;;;;;;12.16;100.00;98989.50;5049916;28;20186;-71
2023/04/12 07:22:20;;;;;;;17.97;14.07;;;;;;;12.15;100.00;98973.09;5047486;28;20223;-72
2023/04/12 07:24:45;;;;;;;14.00;10.93;;;;;;;12.15;100.00;98969.66;5043492;28;20652;-72
2023/04/12 07:27:11;;;;;;;10.10;7.50;;;;;;;12.16;100.00;98958.38;5033406;28;20219;-74
2023/04/12 07:29:36;;;;;;;6.90;5.30;;;;;;;12.22;100.00;98957.28;5042847;28;20200;-72
2023/04/12 07:32:02;;;;;;;5.07;3.50;;;;;;;12.30;100.00;98950.91;5035697;28;20309;-71
2023/04/12 07:34:27;;;;;;;4.37;2.90;;;;;;;12.39;100.00;98946.31;5038809;28;20205;-72
2023/04/12 07:36:52;;;;;;;3.07;2.50;;;;;;;12.44;100.00;98941.75;5037555;28;20605;-72
2023/04/12 07:39:18;;;;;;;3.63;1.93;;;;;;;12.55;100.00;98933.56;5038537;28;20193;-72
2023/04/12 07:41:45;;;;;;;2.50;1.70;;;;;;;12.66;100.00;98931.41;5039322;28;20283;-72
2023/04/12 07:44:10;;;;;;;2.00;1.73;;;;;;;12.78;100.00;98927.47;5034733;28;20208;-72
2023/04/12 07:46:37;;;;;;;1.50;1.40;;;;;;;12.83;100.00;98929.88;5040470;28;20705;-72
2023/04/12 07:49:02;;;;;;;3.83;1.93;;;;;;;12.83;100.00;98935.06;5036647;28;20278;-72
2023/04/12 07:51:27;;;;;;;1.97;1.57;;;;;;;12.81;100.00;98935.97;5036761;28;20273;-72
2023/04/12 07:53:53;;;;;;;4.43;1.90;;;;;;;12.78;100.00;98936.09;5037002;28;20241;-72
2023/04/12 07:56:18;;;;;;;2.37;1.93;;;;;;;12.74;100.00;98942.34;5039384;28;20279;-72
2023/04/12 07:58:43;;;;;;;2.83;2.07;;;;;;;12.69;100.00;98952.03;5041633;28;20192;-72
2023/04/12 08:01:12;;;;;;;3.57;2.10;;;;;;;12.67;100.00;98945.22;5037489;28;20191;-72
2023/04/12 08:03:37;;;;;;;2.20;1.77;;;;;;;12.65;100.00;98950.47;5044230;28;20297;-71
2023/04/12 08:06:03;;;;;;;5.13;3.50;;;;;;;12.68;100.00;98954.72;5045966;28;20212;-73
2023/04/12 08:08:28;;;;;;;6.67;6.00;;;;;;;12.70;100.00;98950.31;5037955;28;20191;-72
2023/04/12 08:10:54;;;;;;;8.60;7.60;;;;;;;12.75;100.00;98941.44;5043726;28;20280;-72
2023/04/12 08:13:20;;;;;;;4.83;4.33;;;;;;;12.78;100.00;98924.88;5040485;28;20207;-72
2023/04/12 08:15:48;;;;;;;3.20;2.73;;;;;;;12.81;100.00;98923.00;5044262;28;20204;-73
2023/04/12 08:18:14;;;;;;;4.40;2.63;;;;;;;12.88;100.00;98920.16;5037191;28;20189;-72
2023/04/12 08:20:39;;;;;;;2.33;2.13;;;;;;;12.95;100.00;98917.25;5034666;28;20192;-71
2023/04/12 08:23:05;;;;;;;3.10;2.10;;;;;;;13.05;100.00;98907.34;5037619;28;20188;-72
2023/04/12 08:25:30;;;;;;;2.70;1.77;;;;;;;13.18;100.00;98904.22;5038219;28;20237;-72
2023/04/12 08:27:56;;;;;;;3.40;2.20;;;;;;;13.35;100.00;98901.78;5032433;28;20229;-72
2023/04/12 08:30:25;;;;;;;3.07;2.20;;;;;;;13.50;100.00;98909.84;5040819;28;20271;-71
2023/04/12 08:32:51;;;;;;;2.20;1.87;;;;;;;13.57;100.00;98913.84;5040803;28;20197;-71
2023/04/12 08:35:16;;;;;;;2.53;2.13;;;;;;;13.58;100.00;98905.16;5052086;28;20219;-73
2023/04/12 08:37:41;;;;;;;3.77;2.23;;;;;;;13.58;100.00;98894.75;5046427;28;20191;-74
2023/04/12 08:40:08;;;;;;;3.53;1.87;;;;;;;13.56;100.00;98907.81;5048100;28;20187;-73
2023/04/12 08:42:35;;;;;;;3.13;1.83;;;;;;;13.55;100.00;98907.88;5038802;28;20686;-72
2023/04/12 08:45:06;;;;;;;3.97;1.90;;;;;;;13.53;100.00;98912.31;5040505;28;20231;-73
2023/04/12 08:47:37;;;;;;;3.53;1.77;;;;;;;13.51;100.00;98906.34;5049947;28;20255;-72
2023/04/12 08:50:07;;;;;;;3.07;1.83;;;;;;;13.44;100.00;98910.09;5041742;28;20193;-72
2023/04/12 08:52:32;;;;;;;2.83;1.90;;;;;;;13.40;100.00;98901.59;5045084;28;20256;-71
2023/04/12 08:55:01;;;;;;;4.00;1.80;;;;;;;13.39;100.00;98900.72;5035546;28;20358;-72
2023/04/12 08:57:27;;;;;;;3.60;1.80;;;;;;;13.38;100.00;98905.97;5046272;28;20192;-72
2023/04/12 08:59:53;;;;;;;3.73;2.07;;;;;;;13.31;100.00;98904.56;5039769;28;20945;-71
2023/04/12 09:02:19;;;;;;;3.43;2.27;;;;;;;13.20;100.00;98918.00;5042431;28;20193;-72
2023/04/12 09:04:48;;;;;;;3.43;2.10;;;;;;;13.10;100.00;98928.75;5041277;28;20378;-71
2023/04/12 09:07:14;;;;;;;4.17;3.07;;;;;;;13.04;100.00;98928.16;5047304;28;20209;-72
2023/04/12 09:09:44;;;;;;;4.27;2.40;;;;;;;13.03;100.00;98916.94;5051533;28;20669;-73
2023/04/12 09:12:10;;;;;;;4.17;2.30;;;;;;;13.10;100.00;98894.16;5046054;28;20484;-73
2023/04/12 09:14:37;;;;;;;4.63;2.20;;;;;;;13.23;100.00;98907.50;5033980;28;20210;-73
2023/04/12 09:17:03;;;;;;;2.70;1.90;;;;;;;13.33;100.00;98898.38;5033851;28;20208;-74
2023/04/12 09:19:34;;;;;;;3.00;2.00;;;;;;;13.44;100.00;98894.50;5046086;28;20186;-73
2023/04/12 09:21:59;;;;;;;3.73;2.00;;;;;;;13.48;100.00;98891.69;5038429;28;20190;-71
2023/04/12 09:24:25;;;;;;;2.53;1.90;;;;;;;13.55;100.00;98882.75;5045592;28;20217;-73
2023/04/12 09:27:00;;;;;;;3.50;1.90;;;;;;;13.68;100.00;98884.78;5032704;28;20213;-74
2023/04/12 09:29:25;;;;;;;3.90;2.00;;;;;;;13.74;100.00;98870.69;5037421;28;20192;-72
2023/04/12 09:32:04;;;;;;;4.37;1.90;;;;;;;13.76;100.00;98890.50;5041010;28;20691;-72
2023/04/12 09:34:31;;;;;;;4.30;1.90;;;;;;;13.73;100.00;98882.84;5034978;28;20366;-72
2023/04/12 09:36:57;;;;;;;2.60;1.97;;;;;;;13.67;100.00;98885.72;5041434;28;20188;-72
2023/04/12 09:39:32;;;;;;;2.30;2.10;;;;;;;13.66;100.00;98886.63;5031749;28;20192;-73
2023/04/12 09:42:09;;;;;;;2.77;1.87;;;;;;;13.68;100.00;98880.47;5036314;28;20665;-72
2023/04/12 09:44:35;;;;;;;4.23;2.03;;;;;;;13.73;100.00;98885.44;5034930;28;20210;-72
2023/04/12 09:47:01;;;;;;;2.10;1.90;;;;;;;13.82;100.00;98884.19;5030996;28;20287;-73
2023/04/12 09:49:42;;;;;;;2.07;1.83;;;;;;;13.83;100.00;98871.09;5039712;28;20192;-71
2023/04/12 09:52:09;;;;;;;2.50;1.70;;;;;;;13.94;100.00;98868.03;5046021;28;20182;-74
2023/04/12 09:54:42;;;;;;;1.97;1.60;;;;;;;14.06;100.00;98870.97;5071251;28;20202;-73
2023/04/12 09:57:08;;;;;;;2.47;1.63;;;;;;;14.17;100.00;98864.38;5043484;28;20179;-72
2023/04/12 09:59:39;;;;;;;2.13;1.80;;;;;;;14.32;100.00;98867.16;5036542;28;20178;-71
2023/04/12 10:02:26;;;;;;;3.00;1.70;;;;;;;14.41;100.00;98860.69;5042976;28;20274;-71
2023/04/12 10:04:51;;;;;;;2.90;1.70;;;;;;;14.54;100.00;98853.97;5038115;28;20218;-72
2023/04/12 10:07:17;;;;;;;4.47;1.93;;;;;;;14.66;100.00;98854.28;5034119;28;20206;-73
2023/04/12 10:09:43;;;;;;;2.23;1.40;;;;;;;14.73;100.00;98850.50;5030223;28;20195;-71
2023/04/12 10:12:10;;;;;;;2.60;1.40;;;;;;;14.82;100.00;98842.22;5044932;28;20847;-73
2023/04/12 10:14:36;;;;;;;1.80;1.40;;;;;;;14.93;100.00;98839.91;5032019;28;20298;-73
2023/04/12 10:17:03;;;;;;;2.20;1.60;;;;;;;15.03;100.00;98844.69;5032650;28;20183;-71
2023/04/12 10:19:29;;;;;;;3.63;1.30;;;;;;;15.13;100.00;98839.81;5037325;28;20803;-72
2023/04/12 10:21:56;;;;;;;2.60;1.57;;;;;;;15.22;99.06;98829.78;5036160;28;20187;-73
2023/04/12 10:24:27;;;;;;;3.63;1.50;;;;;;;15.35;99.37;98826.56;5028282;28;20291;-72
2023/04/12 10:26:54;;;;;;;1.67;1.10;;;;;;;15.48;99.15;98827.59;5037936;28;20261;-72
2023/04/12 10:29:26;;;;;;;2.97;1.40;;;;;;;15.61;96.97;98821.72;5037699;28;20491;-71
2023/04/12 10:31:53;;;;;;;2.33;1.20;;;;;;;15.67;97.18;98827.44;5035809;28;20198;-73
2023/04/12 10:34:31;;;;;;;1.73;1.07;;;;;;;15.72;96.65;98819.38;5030766;28;20742;-72
2023/04/12 10:37:00;;;;;;;2.77;1.90;;;;;;;15.76;96.86;98815.69;5028375;28;20286;-72
2023/04/12 10:39:36;;;;;;;1.70;1.60;;;;;;;15.77;97.23;98808.69;5035329;28;20187;-72
2023/04/12 10:42:26;;;;;;;3.20;1.30;;;;;;;15.79;96.92;98799.88;5041778;28;20199;-72
2023/04/12 10:44:53;;;;;;;1.87;1.30;;;;;;;15.80;95.39;98803.31;5041950;28;20202;-72
2023/04/12 10:47:47;;;;;;;1.80;1.20;;;;;;;15.79;95.02;98802.47;5038193;28;20217;-72
2023/04/12 10:50:24;;;;;;;3.37;1.10;;;;;;;15.91;95.02;98800.16;5038477;28;20203;-72
2023/04/12 10:53:08;;;;;;;2.57;1.17;;;;;;;16.06;95.13;98798.44;5043116;28;20216;-74
2023/04/12 10:55:34;;;;;;;3.10;1.30;;;;;;;16.26;94.91;98794.75;5057743;28;20214;-73
2023/04/12 10:57:59;;;;;;;1.80;1.03;;;;;;;16.37;94.04;98797.56;5035485;28;20412;-72
2023/04/12 11:00:59;;;;;;;1.13;1.00;;;;;;;16.41;93.55;98787.78;5043794;28;20225;-73
2023/04/12 11:03:26;;;;;;;2.60;1.30;;;;;;;16.45;93.86;98790.13;5051155;28;20244;-73
2023/04/12 11:06:02;;;;;;;2.10;1.10;;;;;;;16.52;93.41;98781.97;5052045;28;20194;-72
2023/04/12 11:08:28;;;;;;;1.80;1.40;;;;;;;16.64;93.24;98780.41;5049270;28;20198;-73
2023/04/12 11:11:17;;;;;;;2.80;1.33;;;;;;;16.79;91.31;98766.44;5033419;28;20185;-72
2023/04/12 11:13:42;;;;;;;1.87;1.30;;;;;;;17.04;90.84;98767.63;5033948;28;20228;-73
2023/04/12 11:16:11;;;;;;;1.47;1.37;;;;;;;17.09;90.98;98768.19;5036731;28;20211;-72
2023/04/12 11:18:37;;;;;;;2.17;1.23;;;;;;;17.03;89.73;98753.69;5046200;28;21185;-74
2023/04/12 11:21:03;;;;;;;2.63;1.90;;;;;;;17.03;88.66;98756.31;5037030;28;20246;-73
2023/04/12 11:23:30;;;;;;;1.40;1.00;;;;;;;16.99;87.13;98756.59;5037354;28;20199;-73
2023/04/12 11:25:56;;;;;;;1.93;1.33;;;;;;;16.96;87.03;98748.94;5039992;28;20197;-73
2023/04/12 11:28:22;;;;;;;3.13;1.20;;;;;;;17.09;87.61;98741.22;5041861;28;20190;-73